createdAt,value
2022-12-06T00:01:32.238Z,60.58
2022-12-06T00:04:04.637Z,63.58
2022-12-06T00:06:34.357Z,58.65
2022-12-06T00:09:02.066Z,58.05
2022-12-06T00:11:32.610Z,56.95
2022-12-06T00:14:03.713Z,58.17
2022-12-06T00:16:32.836Z,57.85
2022-12-06T00:19:02.022Z,51.70
2022-12-06T00:21:31.944Z,53.40
2022-12-06T00:24:03.718Z,61.58
2022-12-06T00:26:31.974Z,54.20
2022-12-06T00:29:01.030Z,59.80
2022-12-06T00:31:31.015Z,59.92
2022-12-06T00:33:59.131Z,55.38
2022-12-06T00:36:29.503Z,53.05
2022-12-06T00:39:01.150Z,52.70
2022-12-06T00:41:29.095Z,59.22
2022-12-06T00:43:56.721Z,63.15
2022-12-06T00:46:28.212Z,55.60
2022-12-06T00:48:59.974Z,54.88
2022-12-06T00:51:29.803Z,52.58
2022-12-06T00:53:59.007Z,56.30
2022-12-06T00:56:27.193Z,56.50
2022-12-06T00:58:54.853Z,61.38
2022-12-06T01:01:26.505Z,50.83
2022-12-06T01:03:58.992Z,73.28
2022-12-06T01:06:31.923Z,59.05
2022-12-06T01:09:02.787Z,53.10
2022-12-06T01:11:31.383Z,67.55
2022-12-06T01:13:59.620Z,56.00
2022-12-06T01:16:29.848Z,57.65
2022-12-06T01:19:00.302Z,63.78
2022-12-06T01:21:29.664Z,55.97
2022-12-06T01:23:58.247Z,60.00
2022-12-06T01:26:28.818Z,59.28
2022-12-06T01:28:58.070Z,66.95
2022-12-06T01:31:30.719Z,62.90
2022-12-06T01:34:01.975Z,67.20
2022-12-06T01:36:30.527Z,64.38
2022-12-06T01:39:01.127Z,55.38
2022-12-06T01:41:29.324Z,62.35
2022-12-06T01:43:57.136Z,57.95
2022-12-06T01:46:36.865Z,55.85
2022-12-06T01:49:14.480Z,52.58
2022-12-06T01:51:47.103Z,56.47
2022-12-06T01:54:16.773Z,53.30
2022-12-06T01:56:44.963Z,55.20
2022-12-06T01:59:13.901Z,52.45
2022-12-06T02:01:42.213Z,58.53
2022-12-06T02:04:10.024Z,58.97
2022-12-06T02:06:40.435Z,49.53
2022-12-06T02:09:10.281Z,43.58
2022-12-06T02:11:38.462Z,58.38
2022-12-06T02:14:10.081Z,57.03
2022-12-06T02:16:46.260Z,44.08
2022-12-06T02:19:22.778Z,51.08
2022-12-06T02:22:23.765Z,70.45
2022-12-06T02:25:07.679Z,90.57
2022-12-06T02:30:46.519Z,95.35
2022-12-06T02:33:23.032Z,88.65
2022-12-06T02:36:04.577Z,137.00
2022-12-06T02:38:43.938Z,123.72
2022-12-06T02:41:20.648Z,67.85
2022-12-06T02:43:55.149Z,77.63
2022-12-06T02:46:25.552Z,67.90
2022-12-06T02:48:54.417Z,64.82
2022-12-06T02:51:23.369Z,62.20
2022-12-06T02:53:54.349Z,67.28
2022-12-06T02:56:23.759Z,102.45
2022-12-06T02:58:51.816Z,114.57
2022-12-06T03:01:26.822Z,107.22
2022-12-06T03:04:32.069Z,110.32
2022-12-06T03:07:12.494Z,100.25
2022-12-06T03:09:40.798Z,108.07
2022-12-06T03:12:18.980Z,107.50
2022-12-06T03:14:51.723Z,84.68
2022-12-06T03:17:27.453Z,96.60
2022-12-06T03:20:03.500Z,82.28
2022-12-06T03:22:39.799Z,121.63
2022-12-06T03:25:10.923Z,132.00
2022-12-06T03:27:41.378Z,111.45
2022-12-06T03:30:12.561Z,182.65
2022-12-06T03:32:44.736Z,132.48
2022-12-06T03:35:16.951Z,144.88
2022-12-06T03:37:50.664Z,99.00
2022-12-06T03:42:53.634Z,86.20
2022-12-06T03:45:25.593Z,137.50
2022-12-06T03:48:01.255Z,106.10
2022-12-06T03:50:43.844Z,111.97
2022-12-06T03:53:11.693Z,64.35
2022-12-06T03:55:40.055Z,46.38
2022-12-06T03:58:08.222Z,46.65
2022-12-06T04:00:36.575Z,43.10
2022-12-06T04:03:04.238Z,54.00
2022-12-06T04:05:31.727Z,55.90
2022-12-06T04:07:59.932Z,55.65
2022-12-06T04:10:27.653Z,51.55
2022-12-06T04:13:01.528Z,45.17
2022-12-06T04:18:16.399Z,51.45
2022-12-06T04:21:15.728Z,46.65
2022-12-06T04:23:46.866Z,45.15
2022-12-06T04:26:20.008Z,43.97
2022-12-06T04:29:06.972Z,44.72
2022-12-06T04:31:53.618Z,50.20
2022-12-06T04:34:40.417Z,45.85
2022-12-06T04:37:27.539Z,43.38
2022-12-06T04:39:55.262Z,51.58
2022-12-06T04:42:42.090Z,44.65
2022-12-06T04:45:09.955Z,48.67
2022-12-06T04:47:37.619Z,43.95
2022-12-06T04:50:06.122Z,46.88
2022-12-06T04:52:36.034Z,46.88
2022-12-06T04:55:08.236Z,42.05
2022-12-06T04:57:35.847Z,46.03
2022-12-06T05:00:04.897Z,46.47
2022-12-06T05:02:32.903Z,43.15
2022-12-06T05:05:00.589Z,46.55
2022-12-06T05:07:28.351Z,44.15
2022-12-06T05:09:56.028Z,46.00
2022-12-06T05:12:24.049Z,44.08
2022-12-06T05:14:52.245Z,43.45
2022-12-06T05:17:19.798Z,47.17
2022-12-06T05:19:47.827Z,50.53
2022-12-06T05:22:15.534Z,47.95
2022-12-06T05:24:43.116Z,48.20
2022-12-06T05:27:10.919Z,57.20
2022-12-06T05:29:38.623Z,50.80
2022-12-06T05:32:06.884Z,50.72
2022-12-06T05:34:34.407Z,48.45
2022-12-06T05:37:01.960Z,58.33
2022-12-06T05:39:29.644Z,53.85
2022-12-06T05:41:57.373Z,53.05
2022-12-06T05:44:25.523Z,47.38
2022-12-06T05:46:53.117Z,51.58
2022-12-06T05:49:21.635Z,43.45
2022-12-06T05:51:49.951Z,47.65
2022-12-06T05:54:17.579Z,53.30
2022-12-06T05:56:45.880Z,52.78
2022-12-06T05:59:13.477Z,46.72
2022-12-06T06:01:41.069Z,48.53
2022-12-06T06:04:08.646Z,45.55
2022-12-06T06:06:36.182Z,46.22
2022-12-06T06:09:03.715Z,50.92
2022-12-06T06:11:31.760Z,51.75
2022-12-06T06:13:59.254Z,56.80
2022-12-06T06:16:26.866Z,57.85
2022-12-06T06:18:54.939Z,58.58
2022-12-06T06:21:23.042Z,58.33
2022-12-06T06:23:51.420Z,48.75
2022-12-06T06:26:18.996Z,50.60
2022-12-06T06:28:46.487Z,60.72
2022-12-06T06:31:14.261Z,51.40
2022-12-06T06:33:42.450Z,53.33
2022-12-06T06:36:10.065Z,52.63
2022-12-06T06:38:38.061Z,53.10
2022-12-06T06:41:06.550Z,62.20
2022-12-06T06:43:34.675Z,61.88
2022-12-06T06:46:09.259Z,68.15
2022-12-06T06:48:39.430Z,74.53
2022-12-06T06:51:13.080Z,81.53
2022-12-06T06:53:41.401Z,77.05
2022-12-06T06:56:09.612Z,77.55
2022-12-06T06:58:37.566Z,73.85
2022-12-06T07:01:07.169Z,72.38
2022-12-06T07:03:35.579Z,80.05
2022-12-06T07:06:09.008Z,65.97
2022-12-06T07:08:36.809Z,71.50
2022-12-06T07:11:05.215Z,67.32
2022-12-06T07:13:32.835Z,66.28
2022-12-06T07:16:03.988Z,65.70
2022-12-06T07:18:32.159Z,67.72
2022-12-06T07:21:05.855Z,65.13
2022-12-06T07:26:07.106Z,60.58
2022-12-06T07:28:39.370Z,73.18
2022-12-06T07:31:12.831Z,80.32
2022-12-06T07:33:42.856Z,72.05
2022-12-06T07:36:13.604Z,68.78
2022-12-06T07:38:49.405Z,66.60
2022-12-06T07:41:37.330Z,64.30
2022-12-06T07:44:31.206Z,65.82
2022-12-06T07:46:59.647Z,64.80
2022-12-06T07:49:28.391Z,57.50
2022-12-06T07:51:56.449Z,54.17
2022-12-06T07:54:25.131Z,55.40
2022-12-06T07:56:53.232Z,53.92
2022-12-06T07:59:21.499Z,59.72
2022-12-06T08:01:49.195Z,57.72
2022-12-06T08:04:16.891Z,51.03
2022-12-06T08:06:45.620Z,52.45
2022-12-06T08:09:14.396Z,54.78
2022-12-06T08:11:42.857Z,60.42
2022-12-06T08:14:11.966Z,58.83
2022-12-06T08:16:42.414Z,59.10
2022-12-06T08:19:10.476Z,52.97
2022-12-06T08:21:38.251Z,54.45
2022-12-06T08:24:06.140Z,54.38
2022-12-06T08:26:33.843Z,58.78
2022-12-06T08:29:02.463Z,56.47
2022-12-06T08:31:31.934Z,57.40
2022-12-06T08:33:59.541Z,50.80
2022-12-06T08:36:28.889Z,52.83
2022-12-06T08:38:58.773Z,59.03
2022-12-06T08:41:45.248Z,60.63
2022-12-06T08:44:14.995Z,55.88
2022-12-06T08:46:43.372Z,54.88
2022-12-06T08:49:12.395Z,55.95
2022-12-06T08:51:39.989Z,58.28
2022-12-06T08:54:10.521Z,46.47
2022-12-06T08:56:38.156Z,56.97
2022-12-06T08:59:06.468Z,55.97
2022-12-06T09:01:37.748Z,52.90
2022-12-06T09:04:08.366Z,49.78
2022-12-06T09:06:40.582Z,54.97
2022-12-06T09:09:10.087Z,56.53
2022-12-06T09:11:39.330Z,56.85
2022-12-06T09:14:09.206Z,56.20
2022-12-06T09:16:38.130Z,57.22
2022-12-06T09:19:06.011Z,54.58
2022-12-06T09:21:34.586Z,52.17
2022-12-06T09:24:02.100Z,52.90
2022-12-06T09:26:30.201Z,51.05
2022-12-06T09:28:58.809Z,56.70
2022-12-06T09:31:26.456Z,57.97
2022-12-06T09:33:54.483Z,52.42
2022-12-06T09:36:28.171Z,47.40
2022-12-06T09:42:03.698Z,60.05
2022-12-06T09:44:52.765Z,53.80
2022-12-06T09:47:48.146Z,52.75
2022-12-06T09:50:49.395Z,58.53
2022-12-06T09:53:17.000Z,57.42
2022-12-06T09:56:20.865Z,50.53
2022-12-06T09:58:54.407Z,49.13
2022-12-06T10:01:37.432Z,47.60
2022-12-06T10:04:23.562Z,42.58
2022-12-06T10:07:50.572Z,45.28
2022-12-06T10:10:46.162Z,44.65
2022-12-06T10:13:37.531Z,43.70
2022-12-06T10:16:24.360Z,43.85
2022-12-06T10:19:29.988Z,43.50
2022-12-06T10:21:57.769Z,44.08
2022-12-06T10:24:41.032Z,41.85
2022-12-06T10:27:39.055Z,38.75
2022-12-06T10:30:10.892Z,38.05
2022-12-06T10:32:44.533Z,39.55
2022-12-06T10:35:41.474Z,37.25
2022-12-06T10:38:21.600Z,40.25
2022-12-06T10:40:52.573Z,47.95
2022-12-06T10:43:29.405Z,40.03
2022-12-06T10:46:34.923Z,44.63
2022-12-06T10:49:35.095Z,41.33
2022-12-06T10:52:17.071Z,37.88
2022-12-06T10:55:02.668Z,35.03
2022-12-06T10:57:57.749Z,39.42
2022-12-06T11:00:27.408Z,37.05
2022-12-06T11:03:10.669Z,40.95
2022-12-06T11:06:28.278Z,40.28
2022-12-06T11:09:01.636Z,41.13
2022-12-06T11:11:35.200Z,37.03
2022-12-06T11:14:24.605Z,41.20
2022-12-06T11:17:03.945Z,42.10
2022-12-06T11:19:34.806Z,41.33
2022-12-06T11:22:08.621Z,37.75
2022-12-06T11:27:22.960Z,37.00
2022-12-06T11:29:51.834Z,42.55
2022-12-06T11:32:20.772Z,38.92
2022-12-06T11:34:52.510Z,37.97
2022-12-06T11:37:23.882Z,40.30
2022-12-06T11:39:56.375Z,42.17
2022-12-06T11:42:28.402Z,38.80
2022-12-06T11:45:13.799Z,36.22
2022-12-06T11:47:41.719Z,38.58
2022-12-06T11:50:18.459Z,42.05
2022-12-06T11:53:09.973Z,40.15
2022-12-06T11:55:43.636Z,37.70
2022-12-06T11:58:11.204Z,46.03
2022-12-06T12:00:56.523Z,43.17
2022-12-06T12:03:33.333Z,38.72
2022-12-06T12:06:29.366Z,35.30
2022-12-06T12:09:00.955Z,37.10
2022-12-06T12:11:34.405Z,39.15
2022-12-06T12:14:23.885Z,38.40
2022-12-06T12:17:03.657Z,42.83
2022-12-06T12:19:50.259Z,41.20
2022-12-06T12:22:40.010Z,39.25
2022-12-06T12:25:36.495Z,42.25
2022-12-06T12:28:24.720Z,44.25
2022-12-06T12:30:55.187Z,40.08
2022-12-06T12:33:25.128Z,35.58
2022-12-06T12:36:02.216Z,39.33
2022-12-06T12:38:37.258Z,39.08
2022-12-06T12:41:22.357Z,37.75
2022-12-06T12:47:00.291Z,32.53
2022-12-06T12:49:28.296Z,33.08
2022-12-06T12:51:57.134Z,35.22
2022-12-06T12:54:33.824Z,34.60
2022-12-06T12:57:07.192Z,37.97
2022-12-06T12:59:40.183Z,40.08
2022-12-06T13:02:29.717Z,32.15
2022-12-06T13:05:31.426Z,34.50
2022-12-06T13:07:59.977Z,32.33
2022-12-06T13:10:32.344Z,32.45
2022-12-06T13:13:03.932Z,34.58
2022-12-06T13:15:36.833Z,30.98
2022-12-06T13:18:18.672Z,37.93
2022-12-06T13:20:48.675Z,30.65
2022-12-06T13:23:20.100Z,33.30
2022-12-06T13:25:55.326Z,32.45
2022-12-06T13:28:29.509Z,33.00
2022-12-06T13:31:04.593Z,32.65
2022-12-06T13:33:37.152Z,33.53
2022-12-06T13:36:11.340Z,32.17
2022-12-06T13:38:41.166Z,29.55
2022-12-06T13:41:14.260Z,31.80
2022-12-06T13:43:48.511Z,28.35
2022-12-06T13:46:23.342Z,34.13
2022-12-06T13:48:55.501Z,33.58
2022-12-06T13:51:35.278Z,30.75
2022-12-06T13:54:06.081Z,34.63
2022-12-06T13:56:33.719Z,33.38
2022-12-06T13:59:11.785Z,37.30
2022-12-06T14:01:59.211Z,29.60
2022-12-06T14:09:49.489Z,40.30
2022-12-06T14:12:29.219Z,34.20
2022-12-06T14:14:58.126Z,31.52
2022-12-06T14:18:09.643Z,32.47
2022-12-06T14:20:37.075Z,37.95
2022-12-06T14:23:23.677Z,38.20
2022-12-06T14:25:51.748Z,35.20
2022-12-06T14:28:20.236Z,37.10
2022-12-06T14:30:49.080Z,34.20
2022-12-06T14:33:23.762Z,34.45
2022-12-06T14:35:53.803Z,39.58
2022-12-06T14:38:26.823Z,46.17
2022-12-06T14:41:14.092Z,40.75
2022-12-06T14:43:46.530Z,43.55
2022-12-06T14:46:17.237Z,39.08
2022-12-06T14:49:03.969Z,39.65
2022-12-06T14:51:41.036Z,40.67
2022-12-06T14:54:42.163Z,40.88
2022-12-06T14:57:28.603Z,43.67
2022-12-06T15:00:19.413Z,45.22
2022-12-06T15:03:06.601Z,42.63
2022-12-06T15:05:41.236Z,44.50
2022-12-06T15:08:27.638Z,44.92
2022-12-06T15:10:57.140Z,38.40
2022-12-06T15:13:25.977Z,41.85
2022-12-06T15:16:19.951Z,41.17
2022-12-06T15:19:00.580Z,44.15
2022-12-06T15:21:28.211Z,41.65
2022-12-06T15:23:57.347Z,50.45
2022-12-06T15:26:25.497Z,46.78
2022-12-06T15:28:53.480Z,43.60
2022-12-06T15:31:27.258Z,47.38
2022-12-06T15:33:56.839Z,47.05
2022-12-06T15:36:30.894Z,40.40
2022-12-06T15:38:59.082Z,52.80
2022-12-06T15:41:28.890Z,45.53
2022-12-06T15:43:59.251Z,44.03
2022-12-06T15:46:28.752Z,45.22
2022-12-06T15:48:56.549Z,48.80
2022-12-06T15:51:27.360Z,46.42
2022-12-06T15:53:57.652Z,44.60
2022-12-06T15:56:29.395Z,47.70
2022-12-06T15:58:56.978Z,43.92
2022-12-06T16:01:47.558Z,44.72
2022-12-06T16:04:16.134Z,46.20
2022-12-06T16:06:45.334Z,40.67
2022-12-06T16:09:14.184Z,47.72
2022-12-06T16:11:42.569Z,52.65
2022-12-06T16:14:10.255Z,47.38
2022-12-06T16:16:43.219Z,45.92
2022-12-06T16:19:11.284Z,46.35
2022-12-06T16:21:54.392Z,45.55
2022-12-06T16:24:22.196Z,50.83
2022-12-06T16:26:49.896Z,64.53
2022-12-06T16:29:25.046Z,64.95
2022-12-06T16:31:54.196Z,79.47
2022-12-06T16:34:22.574Z,48.45
2022-12-06T16:36:58.943Z,47.42
2022-12-06T16:39:28.671Z,55.00
2022-12-06T16:41:56.437Z,49.90
2022-12-06T16:44:24.511Z,54.67
2022-12-06T16:46:52.397Z,51.50
2022-12-06T16:49:45.310Z,53.50
2022-12-06T16:52:10.405Z,50.58
2022-12-06T16:54:41.577Z,54.50
2022-12-06T16:57:14.606Z,57.38
2022-12-06T16:59:42.921Z,51.50
2022-12-06T17:02:24.907Z,56.67
2022-12-06T17:04:52.762Z,47.17
2022-12-06T17:07:20.426Z,54.90
2022-12-06T17:09:48.458Z,52.50
2022-12-06T17:12:16.071Z,60.38
2022-12-06T17:14:43.820Z,50.13
2022-12-06T17:17:16.322Z,51.50
2022-12-06T17:19:44.392Z,66.30
2022-12-06T17:22:15.625Z,53.97
2022-12-06T17:24:43.815Z,54.75
2022-12-06T17:27:14.752Z,62.22
2022-12-06T17:29:44.559Z,60.95
2022-12-06T17:32:12.736Z,64.75
2022-12-06T17:34:40.338Z,67.88
2022-12-06T17:37:08.273Z,59.50
2022-12-06T17:39:36.035Z,56.78
2022-12-06T17:42:22.246Z,66.05
2022-12-06T17:44:51.105Z,58.00
2022-12-06T17:47:19.754Z,60.88
2022-12-06T17:49:47.516Z,63.58
2022-12-06T17:52:15.448Z,68.20
2022-12-06T17:54:43.489Z,65.40
2022-12-06T17:57:17.669Z,60.92
2022-12-06T17:59:47.418Z,66.50
2022-12-06T18:02:18.922Z,63.00
2022-12-06T18:04:48.428Z,59.55
2022-12-06T18:07:17.358Z,66.95
2022-12-06T18:09:46.395Z,60.97
2022-12-06T18:12:16.024Z,64.20
2022-12-06T18:14:45.096Z,61.15
2022-12-06T18:17:13.249Z,64.47
2022-12-06T18:19:40.903Z,71.95
2022-12-06T18:22:08.833Z,65.43
2022-12-06T18:24:36.719Z,62.75
2022-12-06T18:27:06.468Z,59.63
2022-12-06T18:29:34.869Z,74.15
2022-12-06T18:32:03.590Z,68.55
2022-12-06T18:34:31.678Z,58.28
2022-12-06T18:36:59.422Z,63.22
2022-12-06T18:39:28.136Z,79.50
2022-12-06T18:41:57.182Z,72.13
2022-12-06T18:44:24.805Z,58.90
2022-12-06T18:46:52.554Z,63.50
2022-12-06T18:49:20.212Z,66.75
2022-12-06T18:51:48.343Z,59.28
2022-12-06T18:54:15.941Z,62.47
2022-12-06T18:56:43.558Z,59.17
2022-12-06T18:59:12.313Z,69.97
2022-12-06T19:01:41.160Z,61.10
2022-12-06T19:04:14.386Z,65.80
2022-12-06T19:06:43.294Z,82.38
2022-12-06T19:09:15.087Z,82.10
2022-12-06T19:11:45.961Z,83.75
2022-12-06T19:14:15.044Z,90.75
2022-12-06T19:16:47.746Z,70.32
2022-12-06T19:19:21.577Z,74.10
2022-12-06T19:24:20.801Z,88.75
2022-12-06T19:26:50.609Z,64.78
2022-12-06T19:29:18.686Z,73.63
2022-12-06T19:31:46.404Z,75.35
2022-12-06T19:34:22.971Z,79.18
2022-12-06T19:36:52.533Z,62.13
2022-12-06T19:39:21.173Z,54.28
2022-12-06T19:42:07.156Z,67.47
2022-12-06T19:44:35.136Z,59.85
2022-12-06T19:47:03.190Z,78.43
2022-12-06T19:49:31.493Z,69.55
2022-12-06T19:51:59.320Z,85.15
2022-12-06T19:54:29.351Z,80.38
2022-12-06T19:56:59.365Z,64.85
2022-12-06T19:59:34.312Z,97.85
2022-12-06T20:02:03.159Z,85.10
2022-12-06T20:04:33.926Z,90.32
2022-12-06T20:07:02.528Z,111.03
2022-12-06T20:09:31.523Z,93.65
2022-12-06T20:12:01.432Z,93.72
2022-12-06T20:14:35.330Z,95.53
2022-12-06T20:19:32.186Z,83.57
2022-12-06T20:22:00.603Z,67.15
2022-12-06T20:24:28.245Z,67.47
2022-12-06T20:26:56.428Z,86.40
2022-12-06T20:29:26.507Z,100.65
2022-12-06T20:31:56.382Z,67.07
2022-12-06T20:34:26.178Z,69.72
2022-12-06T20:36:55.215Z,70.60
2022-12-06T20:39:26.592Z,63.78
2022-12-06T20:41:54.438Z,73.57
2022-12-06T20:44:22.427Z,54.85
2022-12-06T20:46:50.412Z,72.90
2022-12-06T20:49:18.575Z,66.10
2022-12-06T20:51:52.374Z,51.65
2022-12-06T20:54:21.475Z,73.63
2022-12-06T20:56:52.065Z,76.15
2022-12-06T20:59:20.459Z,69.03
2022-12-06T21:01:48.573Z,70.30
2022-12-06T21:04:16.917Z,81.82
2022-12-06T21:06:45.125Z,64.97
2022-12-06T21:09:12.766Z,76.47
2022-12-06T21:11:40.934Z,66.55
2022-12-06T21:14:12.084Z,86.90
2022-12-06T21:16:41.274Z,89.25
2022-12-06T21:19:13.478Z,71.63
2022-12-06T21:21:45.571Z,61.28
2022-12-06T21:24:18.357Z,106.30
2022-12-06T21:26:47.294Z,100.53
2022-12-06T21:29:30.648Z,52.15
2022-12-06T21:32:01.606Z,71.85
2022-12-06T21:34:29.606Z,68.10
2022-12-06T21:36:57.690Z,50.35
2022-12-06T21:39:25.278Z,79.38
2022-12-06T21:41:54.078Z,69.45
2022-12-06T21:44:21.812Z,62.40
2022-12-06T21:46:53.742Z,60.22
2022-12-06T21:49:21.769Z,71.38
2022-12-06T21:51:49.422Z,51.85
2022-12-06T21:54:16.982Z,92.03
2022-12-06T21:56:45.284Z,46.17
2022-12-06T21:59:13.209Z,62.03
2022-12-06T22:01:41.444Z,63.35
2022-12-06T22:04:09.422Z,65.55
2022-12-06T22:06:37.390Z,82.97
2022-12-06T22:09:06.950Z,49.50
2022-12-06T22:11:35.036Z,61.33
2022-12-06T22:14:04.922Z,62.58
2022-12-06T22:16:33.273Z,91.03
2022-12-06T22:19:01.353Z,56.40
2022-12-06T22:21:31.437Z,65.95
2022-12-06T22:23:59.508Z,62.10
2022-12-06T22:26:30.531Z,56.20
2022-12-06T22:28:59.817Z,59.13
2022-12-06T22:31:33.673Z,61.38
2022-12-06T22:34:02.072Z,59.13
2022-12-06T22:36:30.851Z,71.65
2022-12-06T22:39:01.397Z,43.05
2022-12-06T22:41:29.977Z,75.22
2022-12-06T22:44:02.910Z,71.90
2022-12-06T22:46:32.057Z,50.88
2022-12-06T22:49:01.410Z,64.93
2022-12-06T22:51:33.990Z,100.38
2022-12-06T22:54:07.524Z,62.45
2022-12-06T22:56:35.626Z,57.28
2022-12-06T22:59:03.801Z,81.35
2022-12-06T23:01:34.325Z,71.78
2022-12-06T23:04:05.092Z,50.35
2022-12-06T23:06:34.760Z,48.47
2022-12-06T23:09:03.913Z,41.92
2022-12-06T23:11:33.951Z,51.40
2022-12-06T23:14:04.374Z,53.03
2022-12-06T23:16:33.244Z,52.45
2022-12-06T23:19:03.558Z,45.70
2022-12-06T23:21:34.618Z,61.78
2022-12-06T23:24:08.248Z,57.45
2022-12-06T23:26:39.576Z,67.10
2022-12-06T23:29:07.742Z,64.97
2022-12-06T23:31:38.291Z,66.40
2022-12-06T23:34:10.051Z,49.70
2022-12-06T23:36:37.906Z,36.08
2022-12-06T23:39:06.238Z,40.25
2022-12-06T23:41:35.211Z,34.03
2022-12-06T23:44:03.944Z,44.33
2022-12-06T23:46:35.657Z,37.40
2022-12-06T23:49:04.588Z,42.20
2022-12-06T23:51:38.282Z,38.58
2022-12-06T23:56:37.975Z,55.60
2022-12-06T23:59:07.647Z,49.08
